sensor_id;sensor_type;location;lat;lon;timestamp;temperature;humidity
45339;DHT22;31071;51.478;5.710;2024-02-23T00:25:39;4.70;99.90
45339;DHT22;31071;51.478;5.710;2024-02-23T00:28:04;4.60;99.90
45339;DHT22;31071;51.478;5.710;2024-02-23T00:37:48;4.90;99.90
45339;DHT22;31071;51.478;5.710;2024-02-23T00:40:14;7.10;99.90
45339;DHT22;31071;51.478;5.710;2024-02-23T00:42:39;4.90;99.90
45339;DHT22;31071;51.478;5.710;2024-02-23T00:45:05;4.90;99.90
45339;DHT22;31071;51.478;5.710;2024-02-23T00:47:31;4.90;99.90
45339;DHT22;31071;51.478;5.710;2024-02-23T00:49:57;4.90;99.90
45339;DHT22;31071;51.478;5.710;2024-02-23T00:52:22;6.90;99.90
45339;DHT22;31071;51.478;5.710;2024-02-23T00:54:48;4.90;99.90
45339;DHT22;31071;51.478;5.710;2024-02-23T00:57:14;4.90;99.90
45339;DHT22;31071;51.478;5.710;2024-02-23T00:59:39;4.90;99.90
45339;DHT22;31071;51.478;5.710;2024-02-23T01:02:05;5.00;99.90
45339;DHT22;31071;51.478;5.710;2024-02-23T01:04:30;5.00;99.90
45339;DHT22;31071;51.478;5.710;2024-02-23T01:06:57;5.00;99.90
45339;DHT22;31071;51.478;5.710;2024-02-23T01:09:23;5.00;99.90
45339;DHT22;31071;51.478;5.710;2024-02-23T01:11:49;5.50;99.90
45339;DHT22;31071;51.478;5.710;2024-02-23T01:14:14;5.10;99.90
45339;DHT22;31071;51.478;5.710;2024-02-23T01:16:40;5.10;99.90
45339;DHT22;31071;51.478;5.710;2024-02-23T01:19:06;5.10;99.90
45339;DHT22;31071;51.478;5.710;2024-02-23T01:21:31;5.10;99.90
45339;DHT22;31071;51.478;5.710;2024-02-23T01:23:57;5.10;99.90
45339;DHT22;31071;51.478;5.710;2024-02-23T01:26:23;6.50;99.90
45339;DHT22;31071;51.478;5.710;2024-02-23T01:31:16;5.20;99.90
45339;DHT22;31071;51.478;5.710;2024-02-23T01:45:53;5.20;99.90
45339;DHT22;31071;51.478;5.710;2024-02-23T01:48:19;5.20;99.90
45339;DHT22;31071;51.478;5.710;2024-02-23T01:50:46;7.30;99.90
45339;DHT22;31071;51.478;5.710;2024-02-23T01:53:12;5.20;99.90
45339;DHT22;31071;51.478;5.710;2024-02-23T01:55:42;5.20;99.90
45339;DHT22;31071;51.478;5.710;2024-02-23T01:58:07;5.20;99.90
45339;DHT22;31071;51.478;5.710;2024-02-23T02:00:34;5.20;99.90
45339;DHT22;31071;51.478;5.710;2024-02-23T02:03:00;5.20;99.90
45339;DHT22;31071;51.478;5.710;2024-02-23T02:05:26;5.20;99.90
45339;DHT22;31071;51.478;5.710;2024-02-23T02:07:53;5.20;99.90
45339;DHT22;31071;51.478;5.710;2024-02-23T02:15:16;5.20;99.90
45339;DHT22;31071;51.478;5.710;2024-02-23T02:17:42;5.30;99.90
45339;DHT22;31071;51.478;5.710;2024-02-23T02:20:12;5.20;99.90
45339;DHT22;31071;51.478;5.710;2024-02-23T02:22:38;5.20;99.90
45339;DHT22;31071;51.478;5.710;2024-02-23T02:25:05;5.20;99.90
45339;DHT22;31071;51.478;5.710;2024-02-23T02:27:31;5.20;99.90
45339;DHT22;31071;51.478;5.710;2024-02-23T02:29:57;5.10;99.90
45339;DHT22;31071;51.478;5.710;2024-02-23T02:32:23;5.10;99.90
45339;DHT22;31071;51.478;5.710;2024-02-23T02:34:49;5.10;99.90
45339;DHT22;31071;51.478;5.710;2024-02-23T02:37:15;5.10;99.90
45339;DHT22;31071;51.478;5.710;2024-02-23T02:39:41;6.60;99.90
45339;DHT22;31071;51.478;5.710;2024-02-23T02:42:07;5.00;99.90
45339;DHT22;31071;51.478;5.710;2024-02-23T02:47:00;5.00;99.90
45339;DHT22;31071;51.478;5.710;2024-02-23T02:49:27;5.00;99.90
45339;DHT22;31071;51.478;5.710;2024-02-23T02:56:47;4.90;99.90
45339;DHT22;31071;51.478;5.710;2024-02-23T02:59:12;4.90;99.90
45339;DHT22;31071;51.478;5.710;2024-02-23T03:01:39;4.90;99.90
45339;DHT22;31071;51.478;5.710;2024-02-23T03:16:17;4.90;99.90
45339;DHT22;31071;51.478;5.710;2024-02-23T03:30:53;5.00;99.90
45339;DHT22;31071;51.478;5.710;2024-02-23T03:33:19;5.20;99.90
45339;DHT22;31071;51.478;5.710;2024-02-23T03:43:03;5.00;99.90
45339;DHT22;31071;51.478;5.710;2024-02-23T03:50:21;4.90;99.90
45339;DHT22;31071;51.478;5.710;2024-02-23T04:00:05;4.90;99.90
45339;DHT22;31071;51.478;5.710;2024-02-23T04:12:18;4.90;99.90
45339;DHT22;31071;51.478;5.710;2024-02-23T04:17:11;4.90;99.90
45339;DHT22;31071;51.478;5.710;2024-02-23T04:22:05;5.40;99.90
45339;DHT22;31071;51.478;5.710;2024-02-23T04:24:31;4.90;99.90
45339;DHT22;31071;51.478;5.710;2024-02-23T04:26:57;7.90;99.90
45339;DHT22;31071;51.478;5.710;2024-02-23T04:34:15;5.00;99.90
45339;DHT22;31071;51.478;5.710;2024-02-23T04:58:39;5.30;99.90
45339;DHT22;31071;51.478;5.710;2024-02-23T05:03:32;5.40;99.90
45339;DHT22;31071;51.478;5.710;2024-02-23T05:10:50;5.50;99.90
45339;DHT22;31071;51.478;5.710;2024-02-23T05:23:00;5.60;99.90
45339;DHT22;31071;51.478;5.710;2024-02-23T05:25:26;5.60;99.90
45339;DHT22;31071;51.478;5.710;2024-02-23T05:32:44;5.70;99.90
45339;DHT22;31071;51.478;5.710;2024-02-23T05:40:03;5.80;99.90
45339;DHT22;31071;51.478;5.710;2024-02-23T05:42:32;5.80;99.90
45339;DHT22;31071;51.478;5.710;2024-02-23T05:44:58;5.80;99.90
45339;DHT22;31071;51.478;5.710;2024-02-23T05:47:24;5.80;99.90
45339;DHT22;31071;51.478;5.710;2024-02-23T05:49:50;5.80;99.90
45339;DHT22;31071;51.478;5.710;2024-02-23T05:54:42;5.90;99.90
45339;DHT22;31071;51.478;5.710;2024-02-23T05:59:33;6.00;99.90
45339;DHT22;31071;51.478;5.710;2024-02-23T06:01:59;5.90;99.90
45339;DHT22;31071;51.478;5.710;2024-02-23T06:04:25;9.90;99.90
45339;DHT22;31071;51.478;5.710;2024-02-23T06:06:51;5.90;99.90
45339;DHT22;31071;51.478;5.710;2024-02-23T06:36:07;6.00;99.90
45339;DHT22;31071;51.478;5.710;2024-02-23T06:48:18;6.00;99.90
45339;DHT22;31071;51.478;5.710;2024-02-23T07:02:56;6.00;99.90
45339;DHT22;31071;51.478;5.710;2024-02-23T07:05:24;6.10;99.90
45339;DHT22;31071;51.478;5.710;2024-02-23T07:07:50;6.40;99.90
45339;DHT22;31071;51.478;5.710;2024-02-23T07:10:15;6.10;99.90
45339;DHT22;31071;51.478;5.710;2024-02-23T07:12:43;6.10;99.90
45339;DHT22;31071;51.478;5.710;2024-02-23T07:15:10;6.10;99.90
45339;DHT22;31071;51.478;5.710;2024-02-23T07:29:55;6.20;99.90
45339;DHT22;31071;51.478;5.710;2024-02-23T07:32:20;6.20;99.90
45339;DHT22;31071;51.478;5.710;2024-02-23T07:37:13;6.20;99.90
45339;DHT22;31071;51.478;5.710;2024-02-23T07:39:39;6.20;99.90
45339;DHT22;31071;51.478;5.710;2024-02-23T07:42:05;7.40;99.90
45339;DHT22;31071;51.478;5.710;2024-02-23T07:46:58;6.30;99.90
45339;DHT22;31071;51.478;5.710;2024-02-23T07:56:42;6.60;99.90
45339;DHT22;31071;51.478;5.710;2024-02-23T08:13:50;6.60;99.90
45339;DHT22;31071;51.478;5.710;2024-02-23T08:16:16;7.80;99.90
45339;DHT22;31071;51.478;5.710;2024-02-23T08:21:10;6.60;99.90
45339;DHT22;31071;51.478;5.710;2024-02-23T08:26:02;6.60;99.90
45339;DHT22;31071;51.478;5.710;2024-02-23T08:28:28;6.60;99.90
45339;DHT22;31071;51.478;5.710;2024-02-23T08:30:53;8.80;99.90
45339;DHT22;31071;51.478;5.710;2024-02-23T08:33:19;6.70;99.90
45339;DHT22;31071;51.478;5.710;2024-02-23T08:35:45;6.70;99.90
45339;DHT22;31071;51.478;5.710;2024-02-23T08:38:13;6.70;99.90
45339;DHT22;31071;51.478;5.710;2024-02-23T08:40:42;8.20;99.90
45339;DHT22;31071;51.478;5.710;2024-02-23T08:43:08;6.90;99.90
45339;DHT22;31071;51.478;5.710;2024-02-23T08:45:33;8.50;99.90
45339;DHT22;31071;51.478;5.710;2024-02-23T08:50:26;7.00;99.90
45339;DHT22;31071;51.478;5.710;2024-02-23T08:52:52;7.00;99.90
45339;DHT22;31071;51.478;5.710;2024-02-23T08:55:17;7.00;99.90
45339;DHT22;31071;51.478;5.710;2024-02-23T09:00:09;7.10;99.90
45339;DHT22;31071;51.478;5.710;2024-02-23T09:02:35;7.10;99.90
45339;DHT22;31071;51.478;5.710;2024-02-23T09:05:03;7.10;99.90
45339;DHT22;31071;51.478;5.710;2024-02-23T09:07:30;7.20;99.90
45339;DHT22;31071;51.478;5.710;2024-02-23T09:10:01;7.20;99.90
45339;DHT22;31071;51.478;5.710;2024-02-23T09:12:27;7.20;99.90
45339;DHT22;31071;51.478;5.710;2024-02-23T09:17:19;7.10;99.90
45339;DHT22;31071;51.478;5.710;2024-02-23T09:24:40;7.20;99.90
45339;DHT22;31071;51.478;5.710;2024-02-23T09:29:33;7.20;99.90
45339;DHT22;31071;51.478;5.710;2024-02-23T09:34:25;7.20;99.90
45339;DHT22;31071;51.478;5.710;2024-02-23T09:36:51;7.20;99.90
45339;DHT22;31071;51.478;5.710;2024-02-23T09:41:43;7.30;99.90
45339;DHT22;31071;51.478;5.710;2024-02-23T09:44:09;7.60;99.90
45339;DHT22;31071;51.478;5.710;2024-02-23T09:46:40;7.40;99.90
45339;DHT22;31071;51.478;5.710;2024-02-23T09:49:11;8.70;99.90
45339;DHT22;31071;51.478;5.710;2024-02-23T09:51:39;7.30;99.90
45339;DHT22;31071;51.478;5.710;2024-02-23T09:54:05;7.30;99.90
45339;DHT22;31071;51.478;5.710;2024-02-23T09:59:02;7.20;99.90
45339;DHT22;31071;51.478;5.710;2024-02-23T10:01:31;11.00;99.90
45339;DHT22;31071;51.478;5.710;2024-02-23T10:04:21;9.00;99.90
45339;DHT22;31071;51.478;5.710;2024-02-23T10:16:37;7.40;99.90
45339;DHT22;31071;51.478;5.710;2024-02-23T10:19:04;10.80;99.90
45339;DHT22;31071;51.478;5.710;2024-02-23T10:21:30;7.50;99.90
45339;DHT22;31071;51.478;5.710;2024-02-23T10:23:59;7.40;99.90
45339;DHT22;31071;51.478;5.710;2024-02-23T10:26:26;7.40;99.90
45339;DHT22;31071;51.478;5.710;2024-02-23T10:31:18;7.30;99.90
45339;DHT22;31071;51.478;5.710;2024-02-23T10:33:45;7.40;99.90
45339;DHT22;31071;51.478;5.710;2024-02-23T10:36:15;7.40;99.90
45339;DHT22;31071;51.478;5.710;2024-02-23T10:38:44;9.10;99.90
45339;DHT22;31071;51.478;5.710;2024-02-23T10:41:13;5.50;99.90
45339;DHT22;31071;51.478;5.710;2024-02-23T10:43:44;7.50;99.90
45339;DHT22;31071;51.478;5.710;2024-02-23T10:46:12;7.50;99.90
45339;DHT22;31071;51.478;5.710;2024-02-23T10:48:44;7.60;99.90
45339;DHT22;31071;51.478;5.710;2024-02-23T10:51:13;7.60;99.90
45339;DHT22;31071;51.478;5.710;2024-02-23T10:53:44;7.60;99.90
45339;DHT22;31071;51.478;5.710;2024-02-23T10:56:11;7.70;99.90
45339;DHT22;31071;51.478;5.710;2024-02-23T10:58:37;7.60;99.90
45339;DHT22;31071;51.478;5.710;2024-02-23T11:01:05;7.70;99.90
45339;DHT22;31071;51.478;5.710;2024-02-23T11:03:36;7.60;99.90
45339;DHT22;31071;51.478;5.710;2024-02-23T11:06:02;7.60;99.90
45339;DHT22;31071;51.478;5.710;2024-02-23T11:08:32;7.60;99.90
45339;DHT22;31071;51.478;5.710;2024-02-23T11:11:10;7.60;99.90
45339;DHT22;31071;51.478;5.710;2024-02-23T11:13:37;7.60;99.90
45339;DHT22;31071;51.478;5.710;2024-02-23T11:16:03;7.60;99.90
45339;DHT22;31071;51.478;5.710;2024-02-23T11:18:39;7.60;99.90
45339;DHT22;31071;51.478;5.710;2024-02-23T11:21:05;7.60;99.90
45339;DHT22;31071;51.478;5.710;2024-02-23T11:23:41;7.70;99.90
45339;DHT22;31071;51.478;5.710;2024-02-23T11:26:12;10.30;99.90
45339;DHT22;31071;51.478;5.710;2024-02-23T11:28:48;7.80;99.90
45339;DHT22;31071;51.478;5.710;2024-02-23T11:31:15;7.90;99.90
45339;DHT22;31071;51.478;5.710;2024-02-23T11:33:52;7.90;99.90
45339;DHT22;31071;51.478;5.710;2024-02-23T11:36:34;8.00;99.90
45339;DHT22;31071;51.478;5.710;2024-02-23T11:39:01;7.90;99.90
45339;DHT22;31071;51.478;5.710;2024-02-23T11:41:30;7.90;99.90
45339;DHT22;31071;51.478;5.710;2024-02-23T11:43:56;7.90;99.90
45339;DHT22;31071;51.478;5.710;2024-02-23T11:46:22;8.80;99.90
45339;DHT22;31071;51.478;5.710;2024-02-23T11:48:48;7.80;99.90
45339;DHT22;31071;51.478;5.710;2024-02-23T11:51:24;7.80;99.90
45339;DHT22;31071;51.478;5.710;2024-02-23T11:53:53;7.80;99.90
45339;DHT22;31071;51.478;5.710;2024-02-23T11:56:22;7.80;99.90
45339;DHT22;31071;51.478;5.710;2024-02-23T11:58:48;8.00;99.90
45339;DHT22;31071;51.478;5.710;2024-02-23T12:01:14;9.10;99.90
45339;DHT22;31071;51.478;5.710;2024-02-23T12:03:40;8.60;99.90
45339;DHT22;31071;51.478;5.710;2024-02-23T12:06:14;7.80;99.90
45339;DHT22;31071;51.478;5.710;2024-02-23T12:08:47;7.80;99.90
45339;DHT22;31071;51.478;5.710;2024-02-23T12:11:12;9.70;99.90
45339;DHT22;31071;51.478;5.710;2024-02-23T12:13:39;7.90;99.90
45339;DHT22;31071;51.478;5.710;2024-02-23T12:16:11;7.90;99.90
45339;DHT22;31071;51.478;5.710;2024-02-23T12:18:40;7.90;99.90
45339;DHT22;31071;51.478;5.710;2024-02-23T12:21:07;9.20;99.90
45339;DHT22;31071;51.478;5.710;2024-02-23T12:23:43;8.00;99.90
45339;DHT22;31071;51.478;5.710;2024-02-23T12:26:10;8.00;99.90
45339;DHT22;31071;51.478;5.710;2024-02-23T12:28:38;7.90;99.90
45339;DHT22;31071;51.478;5.710;2024-02-23T12:31:06;8.00;99.90
45339;DHT22;31071;51.478;5.710;2024-02-23T12:33:33;8.00;99.90
45339;DHT22;31071;51.478;5.710;2024-02-23T12:36:00;10.30;99.90
45339;DHT22;31071;51.478;5.710;2024-02-23T12:38:26;8.00;99.90
45339;DHT22;31071;51.478;5.710;2024-02-23T12:40:52;8.10;99.90
45339;DHT22;31071;51.478;5.710;2024-02-23T12:43:18;10.20;99.90
45339;DHT22;31071;51.478;5.710;2024-02-23T12:45:47;9.80;99.90
45339;DHT22;31071;51.478;5.710;2024-02-23T12:48:15;9.50;99.90
45339;DHT22;31071;51.478;5.710;2024-02-23T12:50:41;10.90;99.90
45339;DHT22;31071;51.478;5.710;2024-02-23T12:53:09;8.80;99.90
45339;DHT22;31071;51.478;5.710;2024-02-23T12:55:36;8.70;99.90
45339;DHT22;31071;51.478;5.710;2024-02-23T12:58:02;8.60;99.90
45339;DHT22;31071;51.478;5.710;2024-02-23T13:02:54;8.50;99.90
45339;DHT22;31071;51.478;5.710;2024-02-23T13:05:26;8.50;99.90
45339;DHT22;31071;51.478;5.710;2024-02-23T13:07:52;8.60;99.90
45339;DHT22;31071;51.478;5.710;2024-02-23T13:10:17;8.70;99.90
45339;DHT22;31071;51.478;5.710;2024-02-23T13:15:10;8.70;99.90
45339;DHT22;31071;51.478;5.710;2024-02-23T13:17:36;10.70;99.90
45339;DHT22;31071;51.478;5.710;2024-02-23T13:20:01;8.90;99.90
45339;DHT22;31071;51.478;5.710;2024-02-23T13:22:31;9.00;99.90
45339;DHT22;31071;51.478;5.710;2024-02-23T13:24:57;9.00;99.90
45339;DHT22;31071;51.478;5.710;2024-02-23T13:27:28;9.10;99.90
45339;DHT22;31071;51.478;5.710;2024-02-23T13:29:59;9.20;99.90
45339;DHT22;31071;51.478;5.710;2024-02-23T13:32:28;9.00;99.90
45339;DHT22;31071;51.478;5.710;2024-02-23T13:34:54;8.90;99.90
45339;DHT22;31071;51.478;5.710;2024-02-23T13:37:20;10.40;99.90
45339;DHT22;31071;51.478;5.710;2024-02-23T13:44:47;8.80;99.90
45339;DHT22;31071;51.478;5.710;2024-02-23T13:47:13;8.60;99.90
45339;DHT22;31071;51.478;5.710;2024-02-23T13:49:38;8.50;99.90
45339;DHT22;31071;51.478;5.710;2024-02-23T13:52:04;9.80;99.90
45339;DHT22;31071;51.478;5.710;2024-02-23T13:54:30;8.50;99.90
45339;DHT22;31071;51.478;5.710;2024-02-23T13:57:07;8.50;99.90
45339;DHT22;31071;51.478;5.710;2024-02-23T13:59:38;8.60;99.90
45339;DHT22;31071;51.478;5.710;2024-02-23T14:02:13;8.60;99.90
45339;DHT22;31071;51.478;5.710;2024-02-23T14:05:00;8.60;99.90
45339;DHT22;31071;51.478;5.710;2024-02-23T14:07:41;8.50;99.90
45339;DHT22;31071;51.478;5.710;2024-02-23T14:10:30;8.50;99.90
45339;DHT22;31071;51.478;5.710;2024-02-23T14:12:58;8.50;99.90
45339;DHT22;31071;51.478;5.710;2024-02-23T14:15:24;9.30;99.90
45339;DHT22;31071;51.478;5.710;2024-02-23T14:17:50;8.50;99.90
45339;DHT22;31071;51.478;5.710;2024-02-23T14:20:16;9.80;99.90
45339;DHT22;31071;51.478;5.710;2024-02-23T14:22:45;8.40;99.90
45339;DHT22;31071;51.478;5.710;2024-02-23T14:25:10;8.40;99.90
45339;DHT22;31071;51.478;5.710;2024-02-23T14:27:36;9.60;99.90
45339;DHT22;31071;51.478;5.710;2024-02-23T14:30:02;8.50;99.90
45339;DHT22;31071;51.478;5.710;2024-02-23T14:32:36;8.50;99.90
45339;DHT22;31071;51.478;5.710;2024-02-23T14:35:10;8.50;99.90
45339;DHT22;31071;51.478;5.710;2024-02-23T14:37:36;8.60;99.90
45339;DHT22;31071;51.478;5.710;2024-02-23T14:40:02;8.50;99.90
45339;DHT22;31071;51.478;5.710;2024-02-23T14:42:28;8.60;99.90
45339;DHT22;31071;51.478;5.710;2024-02-23T14:45:03;12.20;99.90
45339;DHT22;31071;51.478;5.710;2024-02-23T14:47:32;8.60;99.90
45339;DHT22;31071;51.478;5.710;2024-02-23T14:50:00;8.70;99.90
45339;DHT22;31071;51.478;5.710;2024-02-23T14:52:26;8.90;99.90
45339;DHT22;31071;51.478;5.710;2024-02-23T14:54:51;8.70;99.90
45339;DHT22;31071;51.478;5.710;2024-02-23T14:57:19;10.80;99.90
45339;DHT22;31071;51.478;5.710;2024-02-23T14:59:45;8.70;99.90
45339;DHT22;31071;51.478;5.710;2024-02-23T15:02:19;10.60;99.90
45339;DHT22;31071;51.478;5.710;2024-02-23T15:04:45;9.40;99.90
45339;DHT22;31071;51.478;5.710;2024-02-23T15:07:11;8.50;99.90
45339;DHT22;31071;51.478;5.710;2024-02-23T15:09:37;8.50;99.90
45339;DHT22;31071;51.478;5.710;2024-02-23T15:12:03;9.80;99.90
45339;DHT22;31071;51.478;5.710;2024-02-23T15:14:28;8.60;99.90
45339;DHT22;31071;51.478;5.710;2024-02-23T15:16:54;10.70;99.90
45339;DHT22;31071;51.478;5.710;2024-02-23T15:19:20;8.30;99.90
45339;DHT22;31071;51.478;5.710;2024-02-23T15:24:15;8.60;99.90
45339;DHT22;31071;51.478;5.710;2024-02-23T15:26:43;8.70;99.90
45339;DHT22;31071;51.478;5.710;2024-02-23T15:29:09;8.40;99.90
45339;DHT22;31071;51.478;5.710;2024-02-23T15:31:35;8.40;99.90
45339;DHT22;31071;51.478;5.710;2024-02-23T15:34:04;8.50;99.90
45339;DHT22;31071;51.478;5.710;2024-02-23T15:36:44;8.50;99.90
45339;DHT22;31071;51.478;5.710;2024-02-23T15:39:22;8.50;99.90
45339;DHT22;31071;51.478;5.710;2024-02-23T15:41:58;8.50;99.90
45339;DHT22;31071;51.478;5.710;2024-02-23T15:44:33;9.80;99.90
45339;DHT22;31071;51.478;5.710;2024-02-23T15:47:09;8.70;99.90
45339;DHT22;31071;51.478;5.710;2024-02-23T15:49:41;8.80;99.90
45339;DHT22;31071;51.478;5.710;2024-02-23T15:52:07;8.80;99.90
45339;DHT22;31071;51.478;5.710;2024-02-23T15:54:33;8.80;99.90
45339;DHT22;31071;51.478;5.710;2024-02-23T15:57:01;10.10;99.90
45339;DHT22;31071;51.478;5.710;2024-02-23T15:59:27;8.80;99.90
45339;DHT22;31071;51.478;5.710;2024-02-23T16:01:55;8.70;99.90
45339;DHT22;31071;51.478;5.710;2024-02-23T16:04:22;8.70;99.90
45339;DHT22;31071;51.478;5.710;2024-02-23T16:06:48;8.70;99.90
45339;DHT22;31071;51.478;5.710;2024-02-23T16:09:13;7.80;99.90
45339;DHT22;31071;51.478;5.710;2024-02-23T16:11:45;8.50;99.90
45339;DHT22;31071;51.478;5.710;2024-02-23T16:19:19;8.30;99.90
45339;DHT22;31071;51.478;5.710;2024-02-23T16:21:46;8.90;99.90
45339;DHT22;31071;51.478;5.710;2024-02-23T16:24:14;8.20;99.90
45339;DHT22;31071;51.478;5.710;2024-02-23T16:26:40;8.20;99.90
45339;DHT22;31071;51.478;5.710;2024-02-23T16:29:07;8.20;99.90
45339;DHT22;31071;51.478;5.710;2024-02-23T16:31:36;9.50;99.90
45339;DHT22;31071;51.478;5.710;2024-02-23T16:34:05;11.20;99.90
45339;DHT22;31071;51.478;5.710;2024-02-23T16:36:31;8.20;99.90
45339;DHT22;31071;51.478;5.710;2024-02-23T16:38:56;8.20;99.90
45339;DHT22;31071;51.478;5.710;2024-02-23T16:41:23;8.20;99.90
45339;DHT22;31071;51.478;5.710;2024-02-23T16:43:49;9.00;99.90
45339;DHT22;31071;51.478;5.710;2024-02-23T16:46:15;8.50;99.90
45339;DHT22;31071;51.478;5.710;2024-02-23T16:51:13;8.20;99.90
45339;DHT22;31071;51.478;5.710;2024-02-23T16:54:01;8.20;99.90
45339;DHT22;31071;51.478;5.710;2024-02-23T16:59:04;8.10;99.90
45339;DHT22;31071;51.478;5.710;2024-02-23T17:03:56;8.00;99.90
45339;DHT22;31071;51.478;5.710;2024-02-23T17:06:30;8.00;99.90
45339;DHT22;31071;51.478;5.710;2024-02-23T17:08:56;9.60;99.90
45339;DHT22;31071;51.478;5.710;2024-02-23T17:11:21;8.10;99.90
45339;DHT22;31071;51.478;5.710;2024-02-23T17:13:50;8.00;99.90
45339;DHT22;31071;51.478;5.710;2024-02-23T17:16:17;8.10;99.90
45339;DHT22;31071;51.478;5.710;2024-02-23T17:18:52;8.00;99.90
45339;DHT22;31071;51.478;5.710;2024-02-23T17:21:20;8.00;99.90
45339;DHT22;31071;51.478;5.710;2024-02-23T17:23:45;8.00;99.90
45339;DHT22;31071;51.478;5.710;2024-02-23T17:28:39;7.90;99.90
45339;DHT22;31071;51.478;5.710;2024-02-23T17:31:07;8.30;99.90
45339;DHT22;31071;51.478;5.710;2024-02-23T17:33:33;7.80;99.90
45339;DHT22;31071;51.478;5.710;2024-02-23T17:38:26;7.90;99.90
45339;DHT22;31071;51.478;5.710;2024-02-23T17:40:52;8.30;99.90
45339;DHT22;31071;51.478;5.710;2024-02-23T17:43:22;8.10;99.90
45339;DHT22;31071;51.478;5.710;2024-02-23T17:45:48;6.90;99.90
45339;DHT22;31071;51.478;5.710;2024-02-23T17:50:40;7.90;99.90
45339;DHT22;31071;51.478;5.710;2024-02-23T17:55:58;7.90;99.90
45339;DHT22;31071;51.478;5.710;2024-02-23T17:58:24;7.90;99.90
45339;DHT22;31071;51.478;5.710;2024-02-23T18:00:50;9.90;99.90
45339;DHT22;31071;51.478;5.710;2024-02-23T18:03:16;8.10;99.90
45339;DHT22;31071;51.478;5.710;2024-02-23T18:08:15;7.80;99.90
45339;DHT22;31071;51.478;5.710;2024-02-23T18:10:41;7.50;99.90
45339;DHT22;31071;51.478;5.710;2024-02-23T18:13:06;7.30;99.90
45339;DHT22;31071;51.478;5.710;2024-02-23T18:15:36;7.90;99.90
45339;DHT22;31071;51.478;5.710;2024-02-23T18:20:34;6.80;99.90
45339;DHT22;31071;51.478;5.710;2024-02-23T18:23:01;5.40;99.90
45339;DHT22;31071;51.478;5.710;2024-02-23T18:27:54;6.70;99.90
45339;DHT22;31071;51.478;5.710;2024-02-23T18:30:19;6.70;99.90
45339;DHT22;31071;51.478;5.710;2024-02-23T18:35:11;6.60;99.90
45339;DHT22;31071;51.478;5.710;2024-02-23T18:40:06;6.60;99.90
45339;DHT22;31071;51.478;5.710;2024-02-23T18:42:32;6.60;99.90
45339;DHT22;31071;51.478;5.710;2024-02-23T18:45:01;6.50;99.90
45339;DHT22;31071;51.478;5.710;2024-02-23T18:47:26;6.50;99.90
45339;DHT22;31071;51.478;5.710;2024-02-23T18:49:52;6.40;99.90
45339;DHT22;31071;51.478;5.710;2024-02-23T18:57:11;6.10;99.90
45339;DHT22;31071;51.478;5.710;2024-02-23T18:59:37;6.20;99.90
45339;DHT22;31071;51.478;5.710;2024-02-23T19:02:05;6.20;99.90
45339;DHT22;31071;51.478;5.710;2024-02-23T19:06:58;6.20;99.90
45339;DHT22;31071;51.478;5.710;2024-02-23T19:09:24;6.10;99.90
45339;DHT22;31071;51.478;5.710;2024-02-23T19:14:19;6.50;99.90
45339;DHT22;31071;51.478;5.710;2024-02-23T19:16:55;6.50;99.90
45339;DHT22;31071;51.478;5.710;2024-02-23T19:19:22;6.90;99.90
45339;DHT22;31071;51.478;5.710;2024-02-23T19:26:46;6.80;99.90
45339;DHT22;31071;51.478;5.710;2024-02-23T19:29:13;6.80;99.90
45339;DHT22;31071;51.478;5.710;2024-02-23T19:31:39;6.70;99.90
45339;DHT22;31071;51.478;5.710;2024-02-23T19:36:39;6.80;99.90
45339;DHT22;31071;51.478;5.710;2024-02-23T19:39:06;7.50;99.90
45339;DHT22;31071;51.478;5.710;2024-02-23T19:41:45;6.90;99.90
45339;DHT22;31071;51.478;5.710;2024-02-23T19:44:14;5.60;99.90
45339;DHT22;31071;51.478;5.710;2024-02-23T19:46:40;8.50;99.90
45339;DHT22;31071;51.478;5.710;2024-02-23T19:51:37;6.90;99.90
45339;DHT22;31071;51.478;5.710;2024-02-23T19:54:03;8.10;99.90
45339;DHT22;31071;51.478;5.710;2024-02-23T19:56:33;6.80;99.90
45339;DHT22;31071;51.478;5.710;2024-02-23T20:13:39;6.60;99.90
45339;DHT22;31071;51.478;5.710;2024-02-23T20:16:05;6.50;99.90
45339;DHT22;31071;51.478;5.710;2024-02-23T20:18:47;7.40;99.90
45339;DHT22;31071;51.478;5.710;2024-02-23T20:28:52;6.40;99.90
45339;DHT22;31071;51.478;5.710;2024-02-23T20:31:28;6.40;99.90
45339;DHT22;31071;51.478;5.710;2024-02-23T20:33:54;6.40;99.90
45339;DHT22;31071;51.478;5.710;2024-02-23T20:38:50;6.40;99.90
45339;DHT22;31071;51.478;5.710;2024-02-23T20:46:10;6.30;99.90
45339;DHT22;31071;51.478;5.710;2024-02-23T20:48:36;6.30;99.90
45339;DHT22;31071;51.478;5.710;2024-02-23T20:51:02;6.90;99.90
45339;DHT22;31071;51.478;5.710;2024-02-23T20:55:56;6.20;99.90
45339;DHT22;31071;51.478;5.710;2024-02-23T21:05:41;6.40;99.90
45339;DHT22;31071;51.478;5.710;2024-02-23T21:08:07;8.80;99.90
45339;DHT22;31071;51.478;5.710;2024-02-23T21:13:04;6.40;99.90
45339;DHT22;31071;51.478;5.710;2024-02-23T21:15:33;6.40;99.90
45339;DHT22;31071;51.478;5.710;2024-02-23T21:18:01;6.80;99.90
45339;DHT22;31071;51.478;5.710;2024-02-23T21:20:27;6.40;99.90
45339;DHT22;31071;51.478;5.710;2024-02-23T21:23:01;6.50;99.90
45339;DHT22;31071;51.478;5.710;2024-02-23T21:28:01;6.30;99.90
45339;DHT22;31071;51.478;5.710;2024-02-23T21:32:55;6.30;99.90
45339;DHT22;31071;51.478;5.710;2024-02-23T21:35:23;6.20;99.90
45339;DHT22;31071;51.478;5.710;2024-02-23T21:38:18;9.30;99.90
45339;DHT22;31071;51.478;5.710;2024-02-23T21:40:48;6.20;99.90
45339;DHT22;31071;51.478;5.710;2024-02-23T21:45:39;6.30;99.90
45339;DHT22;31071;51.478;5.710;2024-02-23T21:48:06;6.70;99.90
45339;DHT22;31071;51.478;5.710;2024-02-23T21:50:40;6.10;99.90
45339;DHT22;31071;51.478;5.710;2024-02-23T21:53:06;6.20;99.90
45339;DHT22;31071;51.478;5.710;2024-02-23T21:55:32;8.10;99.90
45339;DHT22;31071;51.478;5.710;2024-02-23T21:58:03;9.10;99.90
45339;DHT22;31071;51.478;5.710;2024-02-23T22:00:38;7.10;99.90
45339;DHT22;31071;51.478;5.710;2024-02-23T22:03:05;6.10;99.90
45339;DHT22;31071;51.478;5.710;2024-02-23T22:08:03;6.00;99.90
45339;DHT22;31071;51.478;5.710;2024-02-23T22:12:57;5.90;99.90
45339;DHT22;31071;51.478;5.710;2024-02-23T22:17:50;5.90;99.90
45339;DHT22;31071;51.478;5.710;2024-02-23T22:22:44;5.80;99.90
45339;DHT22;31071;51.478;5.710;2024-02-23T22:25:11;5.80;99.90
45339;DHT22;31071;51.478;5.710;2024-02-23T22:27:41;5.50;99.90
45339;DHT22;31071;51.478;5.710;2024-02-23T22:30:07;5.70;99.90
45339;DHT22;31071;51.478;5.710;2024-02-23T22:32:35;5.70;99.90
45339;DHT22;31071;51.478;5.710;2024-02-23T22:35:02;5.70;99.90
45339;DHT22;31071;51.478;5.710;2024-02-23T22:37:36;5.70;99.90
45339;DHT22;31071;51.478;5.710;2024-02-23T22:40:37;5.90;99.90
45339;DHT22;31071;51.478;5.710;2024-02-23T22:43:13;6.10;99.90
45339;DHT22;31071;51.478;5.710;2024-02-23T22:45:38;5.60;99.90
45339;DHT22;31071;51.478;5.710;2024-02-23T22:48:07;5.60;99.90
45339;DHT22;31071;51.478;5.710;2024-02-23T22:50:43;5.50;99.90
45339;DHT22;31071;51.478;5.710;2024-02-23T22:53:09;7.10;99.90
45339;DHT22;31071;51.478;5.710;2024-02-23T22:55:46;6.20;99.90
45339;DHT22;31071;51.478;5.710;2024-02-23T22:58:25;5.40;99.90